sensor_id;sensor_type;location;lat;lon;timestamp;temperature;humidity
71039;SHT30;58692;43.212;27.908;2023-04-25T00:00:05;12.43;91.86
71039;SHT30;58692;43.212;27.908;2023-04-25T00:02:33;12.39;91.83
71039;SHT30;58692;43.212;27.908;2023-04-25T00:05:01;12.54;91.49
71039;SHT30;58692;43.212;27.908;2023-04-25T00:07:27;12.59;91.15
71039;SHT30;58692;43.212;27.908;2023-04-25T00:09:52;12.60;90.86
71039;SHT30;58692;43.212;27.908;2023-04-25T00:12:18;12.54;90.97
71039;SHT30;58692;43.212;27.908;2023-04-25T00:14:43;12.46;91.01
71039;SHT30;58692;43.212;27.908;2023-04-25T00:17:10;12.39;91.48
71039;SHT30;58692;43.212;27.908;2023-04-25T00:19:36;12.25;91.64
71039;SHT30;58692;43.212;27.908;2023-04-25T00:22:03;12.30;91.70
71039;SHT30;58692;43.212;27.908;2023-04-25T00:24:28;12.22;91.93
71039;SHT30;58692;43.212;27.908;2023-04-25T00:26:54;12.25;92.01
71039;SHT30;58692;43.212;27.908;2023-04-25T00:29:19;12.22;92.10
71039;SHT30;58692;43.212;27.908;2023-04-25T00:31:45;12.26;91.99
71039;SHT30;58692;43.212;27.908;2023-04-25T00:34:10;12.22;92.03
71039;SHT30;58692;43.212;27.908;2023-04-25T00:36:36;12.23;92.15
71039;SHT30;58692;43.212;27.908;2023-04-25T00:39:01;12.18;91.90
71039;SHT30;58692;43.212;27.908;2023-04-25T00:41:28;12.19;92.25
71039;SHT30;58692;43.212;27.908;2023-04-25T00:43:55;12.20;92.12
71039;SHT30;58692;43.212;27.908;2023-04-25T00:46:21;12.25;91.92
71039;SHT30;58692;43.212;27.908;2023-04-25T00:48:47;12.25;92.10
71039;SHT30;58692;43.212;27.908;2023-04-25T00:51:16;12.32;91.90
71039;SHT30;58692;43.212;27.908;2023-04-25T00:53:42;12.34;91.72
71039;SHT30;58692;43.212;27.908;2023-04-25T00:56:08;12.25;92.08
71039;SHT30;58692;43.212;27.908;2023-04-25T00:58:33;12.29;92.14
71039;SHT30;58692;43.212;27.908;2023-04-25T01:00:59;12.28;92.06
71039;SHT30;58692;43.212;27.908;2023-04-25T01:03:26;12.29;92.00
71039;SHT30;58692;43.212;27.908;2023-04-25T01:05:54;12.37;91.70
71039;SHT30;58692;43.212;27.908;2023-04-25T01:08:21;12.44;91.48
71039;SHT30;58692;43.212;27.908;2023-04-25T01:10:48;12.44;91.37
71039;SHT30;58692;43.212;27.908;2023-04-25T01:13:14;12.39;91.36
71039;SHT30;58692;43.212;27.908;2023-04-25T01:15:40;12.36;91.42
71039;SHT30;58692;43.212;27.908;2023-04-25T01:18:05;12.29;91.86
71039;SHT30;58692;43.212;27.908;2023-04-25T01:20:32;12.20;92.26
71039;SHT30;58692;43.212;27.908;2023-04-25T01:22:58;12.22;91.97
71039;SHT30;58692;43.212;27.908;2023-04-25T01:25:24;12.09;92.57
71039;SHT30;58692;43.212;27.908;2023-04-25T01:27:50;12.08;92.65
71039;SHT30;58692;43.212;27.908;2023-04-25T01:30:15;12.10;92.55
71039;SHT30;58692;43.212;27.908;2023-04-25T01:32:42;12.18;92.33
71039;SHT30;58692;43.212;27.908;2023-04-25T01:35:10;12.12;92.45
71039;SHT30;58692;43.212;27.908;2023-04-25T01:37:40;12.13;92.42
71039;SHT30;58692;43.212;27.908;2023-04-25T01:40:06;12.18;92.26
71039;SHT30;58692;43.212;27.908;2023-04-25T01:42:34;12.22;92.15
71039;SHT30;58692;43.212;27.908;2023-04-25T01:45:00;12.26;92.13
71039;SHT30;58692;43.212;27.908;2023-04-25T01:47:25;12.25;91.83
71039;SHT30;58692;43.212;27.908;2023-04-25T01:49:51;12.25;91.94
71039;SHT30;58692;43.212;27.908;2023-04-25T01:52:16;12.32;91.77
71039;SHT30;58692;43.212;27.908;2023-04-25T01:54:42;12.26;92.00
71039;SHT30;58692;43.212;27.908;2023-04-25T01:57:10;12.28;91.88
71039;SHT30;58692;43.212;27.908;2023-04-25T01:59:36;12.37;91.53
71039;SHT30;58692;43.212;27.908;2023-04-25T02:02:02;12.32;91.73
71039;SHT30;58692;43.212;27.908;2023-04-25T02:04:30;12.33;91.54
71039;SHT30;58692;43.212;27.908;2023-04-25T02:06:55;12.32;91.78
71039;SHT30;58692;43.212;27.908;2023-04-25T02:09:21;12.29;91.80
71039;SHT30;58692;43.212;27.908;2023-04-25T02:11:46;12.25;91.98
71039;SHT30;58692;43.212;27.908;2023-04-25T02:14:12;12.22;92.05
71039;SHT30;58692;43.212;27.908;2023-04-25T02:16:37;12.28;91.96
71039;SHT30;58692;43.212;27.908;2023-04-25T02:19:05;12.33;91.89
71039;SHT30;58692;43.212;27.908;2023-04-25T02:21:31;12.30;92.02
71039;SHT30;58692;43.212;27.908;2023-04-25T02:23:57;12.25;92.20
71039;SHT30;58692;43.212;27.908;2023-04-25T02:26:23;12.23;92.38
71039;SHT30;58692;43.212;27.908;2023-04-25T02:28:50;12.23;92.42
71039;SHT30;58692;43.212;27.908;2023-04-25T02:31:16;12.29;92.28
71039;SHT30;58692;43.212;27.908;2023-04-25T02:33:42;12.20;92.58
71039;SHT30;58692;43.212;27.908;2023-04-25T02:36:08;12.23;92.60
71039;SHT30;58692;43.212;27.908;2023-04-25T02:38:34;12.22;92.66
71039;SHT30;58692;43.212;27.908;2023-04-25T02:41:00;12.09;93.31
71039;SHT30;58692;43.212;27.908;2023-04-25T02:43:25;12.15;93.18
71039;SHT30;58692;43.212;27.908;2023-04-25T02:45:51;12.20;93.10
71039;SHT30;58692;43.212;27.908;2023-04-25T02:48:16;12.19;92.93
71039;SHT30;58692;43.212;27.908;2023-04-25T02:50:42;12.16;93.15
71039;SHT30;58692;43.212;27.908;2023-04-25T02:53:07;12.10;93.36
71039;SHT30;58692;43.212;27.908;2023-04-25T02:55:33;12.12;93.50
71039;SHT30;58692;43.212;27.908;2023-04-25T02:57:59;12.10;93.62
71039;SHT30;58692;43.212;27.908;2023-04-25T03:00:24;12.10;93.67
71039;SHT30;58692;43.212;27.908;2023-04-25T03:02:50;12.13;93.80
71039;SHT30;58692;43.212;27.908;2023-04-25T03:05:16;12.10;93.81
71039;SHT30;58692;43.212;27.908;2023-04-25T03:07:42;12.16;93.72
71039;SHT30;58692;43.212;27.908;2023-04-25T03:10:09;12.16;93.53
71039;SHT30;58692;43.212;27.908;2023-04-25T03:12:35;12.13;93.70
71039;SHT30;58692;43.212;27.908;2023-04-25T03:15:00;12.12;93.79
71039;SHT30;58692;43.212;27.908;2023-04-25T03:17:26;12.10;93.89
71039;SHT30;58692;43.212;27.908;2023-04-25T03:19:51;12.05;93.99
71039;SHT30;58692;43.212;27.908;2023-04-25T03:22:17;12.06;93.96
71039;SHT30;58692;43.212;27.908;2023-04-25T03:24:42;12.06;94.01
71039;SHT30;58692;43.212;27.908;2023-04-25T03:27:08;12.16;93.71
71039;SHT30;58692;43.212;27.908;2023-04-25T03:29:34;12.18;93.63
71039;SHT30;58692;43.212;27.908;2023-04-25T03:32:00;12.20;93.51
71039;SHT30;58692;43.212;27.908;2023-04-25T03:34:26;12.23;93.42
71039;SHT30;58692;43.212;27.908;2023-04-25T03:36:52;12.25;93.36
71039;SHT30;58692;43.212;27.908;2023-04-25T03:39:17;12.33;92.95
71039;SHT30;58692;43.212;27.908;2023-04-25T03:41:43;12.30;93.02
71039;SHT30;58692;43.212;27.908;2023-04-25T03:44:08;12.20;93.24
71039;SHT30;58692;43.212;27.908;2023-04-25T03:46:34;12.26;93.26
71039;SHT30;58692;43.212;27.908;2023-04-25T03:48:59;12.28;93.02
71039;SHT30;58692;43.212;27.908;2023-04-25T03:51:25;12.30;93.04
71039;SHT30;58692;43.212;27.908;2023-04-25T03:53:51;12.29;92.99
71039;SHT30;58692;43.212;27.908;2023-04-25T03:56:17;12.29;93.09
71039;SHT30;58692;43.212;27.908;2023-04-25T03:58:44;12.30;93.07
71039;SHT30;58692;43.212;27.908;2023-04-25T04:01:09;12.34;92.76
71039;SHT30;58692;43.212;27.908;2023-04-25T04:03:36;12.43;92.47
71039;SHT30;58692;43.212;27.908;2023-04-25T04:06:04;12.36;92.30
71039;SHT30;58692;43.212;27.908;2023-04-25T04:08:31;12.49;92.28
71039;SHT30;58692;43.212;27.908;2023-04-25T04:10:57;12.84;90.83
71039;SHT30;58692;43.212;27.908;2023-04-25T04:13:23;13.16;89.74
71039;SHT30;58692;43.212;27.908;2023-04-25T04:15:49;13.46;88.38
71039;SHT30;58692;43.212;27.908;2023-04-25T04:18:17;13.93;87.18
71039;SHT30;58692;43.212;27.908;2023-04-25T04:20:45;14.28;85.72
71039;SHT30;58692;43.212;27.908;2023-04-25T04:23:21;14.13;84.83
71039;SHT30;58692;43.212;27.908;2023-04-25T04:25:48;14.57;83.53
71039;SHT30;58692;43.212;27.908;2023-04-25T04:28:16;14.45;83.70
71039;SHT30;58692;43.212;27.908;2023-04-25T04:30:55;14.67;82.86
71039;SHT30;58692;43.212;27.908;2023-04-25T04:33:22;14.12;84.61
71039;SHT30;58692;43.212;27.908;2023-04-25T04:35:50;13.87;85.07
71039;SHT30;58692;43.212;27.908;2023-04-25T04:38:18;13.77;85.86
71039;SHT30;58692;43.212;27.908;2023-04-25T04:40:44;14.57;83.80
71039;SHT30;58692;43.212;27.908;2023-04-25T04:43:11;14.78;82.34
71039;SHT30;58692;43.212;27.908;2023-04-25T04:45:39;14.79;80.94
71039;SHT30;58692;43.212;27.908;2023-04-25T04:48:06;14.74;81.48
71039;SHT30;58692;43.212;27.908;2023-04-25T04:50:31;15.44;80.00
71039;SHT30;58692;43.212;27.908;2023-04-25T04:52:58;15.16;79.76
71039;SHT30;58692;43.212;27.908;2023-04-25T04:55:23;14.81;81.45
71039;SHT30;58692;43.212;27.908;2023-04-25T04:57:49;14.52;82.58
71039;SHT30;58692;43.212;27.908;2023-04-25T05:00:15;14.42;83.00
71039;SHT30;58692;43.212;27.908;2023-04-25T05:02:41;14.38;83.79
71039;SHT30;58692;43.212;27.908;2023-04-25T05:05:06;14.12;84.43
71039;SHT30;58692;43.212;27.908;2023-04-25T05:07:33;14.10;84.28
71039;SHT30;58692;43.212;27.908;2023-04-25T05:09:59;14.60;83.04
71039;SHT30;58692;43.212;27.908;2023-04-25T05:12:25;14.95;81.03
71039;SHT30;58692;43.212;27.908;2023-04-25T05:14:50;15.23;80.36
71039;SHT30;58692;43.212;27.908;2023-04-25T05:17:16;14.71;81.90
71039;SHT30;58692;43.212;27.908;2023-04-25T05:19:41;15.43;79.41
71039;SHT30;58692;43.212;27.908;2023-04-25T05:22:07;15.60;78.43
71039;SHT30;58692;43.212;27.908;2023-04-25T05:24:33;16.08;76.64
71039;SHT30;58692;43.212;27.908;2023-04-25T05:26:58;16.04;76.61
71039;SHT30;58692;43.212;27.908;2023-04-25T05:29:24;16.07;76.52
71039;SHT30;58692;43.212;27.908;2023-04-25T05:31:49;16.20;75.74
71039;SHT30;58692;43.212;27.908;2023-04-25T05:34:15;16.28;75.65
71039;SHT30;58692;43.212;27.908;2023-04-25T05:36:41;16.20;76.08
71039;SHT30;58692;43.212;27.908;2023-04-25T05:39:25;16.86;74.36
71039;SHT30;58692;43.212;27.908;2023-04-25T05:41:54;17.00;73.13
71039;SHT30;58692;43.212;27.908;2023-04-25T05:44:23;17.10;72.71
71039;SHT30;58692;43.212;27.908;2023-04-25T05:46:49;16.11;75.13
71039;SHT30;58692;43.212;27.908;2023-04-25T05:49:15;16.21;75.13
71039;SHT30;58692;43.212;27.908;2023-04-25T05:51:41;16.08;74.96
71039;SHT30;58692;43.212;27.908;2023-04-25T05:54:06;16.40;74.24
71039;SHT30;58692;43.212;27.908;2023-04-25T05:56:32;15.73;75.67
71039;SHT30;58692;43.212;27.908;2023-04-25T05:59:00;15.39;77.03
71039;SHT30;58692;43.212;27.908;2023-04-25T06:01:26;15.02;78.26
71039;SHT30;58692;43.212;27.908;2023-04-25T06:03:51;15.23;77.77
71039;SHT30;58692;43.212;27.908;2023-04-25T06:06:18;15.06;78.00
71039;SHT30;58692;43.212;27.908;2023-04-25T06:08:43;14.96;78.47
71039;SHT30;58692;43.212;27.908;2023-04-25T06:11:11;14.91;78.39
71039;SHT30;58692;43.212;27.908;2023-04-25T06:13:37;15.02;78.04
71039;SHT30;58692;43.212;27.908;2023-04-25T06:16:02;14.84;78.40
71039;SHT30;58692;43.212;27.908;2023-04-25T06:18:28;14.79;78.91
71039;SHT30;58692;43.212;27.908;2023-04-25T06:20:54;15.15;78.32
71039;SHT30;58692;43.212;27.908;2023-04-25T06:23:19;14.82;78.48
71039;SHT30;58692;43.212;27.908;2023-04-25T06:25:46;14.72;79.20
71039;SHT30;58692;43.212;27.908;2023-04-25T06:28:11;14.64;79.40
71039;SHT30;58692;43.212;27.908;2023-04-25T06:30:39;14.58;79.73
71039;SHT30;58692;43.212;27.908;2023-04-25T06:33:05;14.65;79.19
71039;SHT30;58692;43.212;27.908;2023-04-25T06:35:31;14.87;78.71
71039;SHT30;58692;43.212;27.908;2023-04-25T06:37:57;15.12;77.73
71039;SHT30;58692;43.212;27.908;2023-04-25T06:40:23;15.43;76.76
71039;SHT30;58692;43.212;27.908;2023-04-25T06:42:58;15.32;76.46
71039;SHT30;58692;43.212;27.908;2023-04-25T06:45:23;15.69;75.74
71039;SHT30;58692;43.212;27.908;2023-04-25T06:47:49;16.24;73.55
71039;SHT30;58692;43.212;27.908;2023-04-25T06:50:15;15.90;74.62
71039;SHT30;58692;43.212;27.908;2023-04-25T06:52:40;15.64;74.42
71039;SHT30;58692;43.212;27.908;2023-04-25T06:55:06;16.28;72.96
71039;SHT30;58692;43.212;27.908;2023-04-25T06:57:32;16.56;72.44
71039;SHT30;58692;43.212;27.908;2023-04-25T07:00:00;17.27;69.87
71039;SHT30;58692;43.212;27.908;2023-04-25T07:02:26;17.30;69.60
71039;SHT30;58692;43.212;27.908;2023-04-25T07:04:51;17.00;71.20
71039;SHT30;58692;43.212;27.908;2023-04-25T07:07:17;16.73;72.16
71039;SHT30;58692;43.212;27.908;2023-04-25T07:09:42;17.20;70.88
71039;SHT30;58692;43.212;27.908;2023-04-25T07:12:08;17.73;68.94
71039;SHT30;58692;43.212;27.908;2023-04-25T07:14:33;17.57;68.87
71039;SHT30;58692;43.212;27.908;2023-04-25T07:16:59;18.19;66.35
71039;SHT30;58692;43.212;27.908;2023-04-25T07:19:25;17.91;67.33
71039;SHT30;58692;43.212;27.908;2023-04-25T07:21:52;18.26;66.73
71039;SHT30;58692;43.212;27.908;2023-04-25T07:24:18;18.69;65.22
71039;SHT30;58692;43.212;27.908;2023-04-25T07:26:43;19.24;63.09
71039;SHT30;58692;43.212;27.908;2023-04-25T07:29:10;19.48;60.20
71039;SHT30;58692;43.212;27.908;2023-04-25T07:31:35;19.28;61.52
71039;SHT30;58692;43.212;27.908;2023-04-25T07:34:01;19.79;60.45
71039;SHT30;58692;43.212;27.908;2023-04-25T07:36:26;20.16;59.02
71039;SHT30;58692;43.212;27.908;2023-04-25T07:38:52;19.92;58.80
71039;SHT30;58692;43.212;27.908;2023-04-25T07:41:20;19.59;60.25
71039;SHT30;58692;43.212;27.908;2023-04-25T07:43:45;19.93;59.72
71039;SHT30;58692;43.212;27.908;2023-04-25T07:46:11;19.88;59.95
71039;SHT30;58692;43.212;27.908;2023-04-25T07:48:54;19.96;59.93
71039;SHT30;58692;43.212;27.908;2023-04-25T07:51:22;19.74;59.97
71039;SHT30;58692;43.212;27.908;2023-04-25T07:53:50;18.90;62.84
71039;SHT30;58692;43.212;27.908;2023-04-25T07:56:24;18.38;64.75
71039;SHT30;58692;43.212;27.908;2023-04-25T07:58:50;17.55;66.34
71039;SHT30;58692;43.212;27.908;2023-04-25T08:01:19;16.85;68.63
71039;SHT30;58692;43.212;27.908;2023-04-25T08:03:46;16.42;69.99
71039;SHT30;58692;43.212;27.908;2023-04-25T08:06:15;16.29;71.26
71039;SHT30;58692;43.212;27.908;2023-04-25T08:08:50;16.07;72.41
71039;SHT30;58692;43.212;27.908;2023-04-25T08:11:16;15.83;73.44
71039;SHT30;58692;43.212;27.908;2023-04-25T08:13:41;15.84;73.17
71039;SHT30;58692;43.212;27.908;2023-04-25T08:16:07;15.77;73.80
71039;SHT30;58692;43.212;27.908;2023-04-25T08:18:32;15.47;74.94
71039;SHT30;58692;43.212;27.908;2023-04-25T08:20:58;15.42;75.57
71039;SHT30;58692;43.212;27.908;2023-04-25T08:23:23;15.18;75.97
71039;SHT30;58692;43.212;27.908;2023-04-25T08:25:49;15.15;76.70
71039;SHT30;58692;43.212;27.908;2023-04-25T08:28:14;15.02;77.21
71039;SHT30;58692;43.212;27.908;2023-04-25T08:30:40;14.89;77.55
71039;SHT30;58692;43.212;27.908;2023-04-25T08:33:09;15.22;77.13
71039;SHT30;58692;43.212;27.908;2023-04-25T08:35:35;14.98;77.43
71039;SHT30;58692;43.212;27.908;2023-04-25T08:38:01;15.15;77.26
71039;SHT30;58692;43.212;27.908;2023-04-25T08:40:30;15.43;76.22
71039;SHT30;58692;43.212;27.908;2023-04-25T08:43:00;15.05;76.41
71039;SHT30;58692;43.212;27.908;2023-04-25T08:45:31;15.12;76.31
71039;SHT30;58692;43.212;27.908;2023-04-25T08:48:00;15.38;75.69
71039;SHT30;58692;43.212;27.908;2023-04-25T08:50:50;15.43;75.01
71039;SHT30;58692;43.212;27.908;2023-04-25T08:53:17;15.56;74.71
71039;SHT30;58692;43.212;27.908;2023-04-25T08:55:46;15.67;74.22
71039;SHT30;58692;43.212;27.908;2023-04-25T08:58:13;15.56;74.06
71039;SHT30;58692;43.212;27.908;2023-04-25T09:00:40;15.57;73.79
71039;SHT30;58692;43.212;27.908;2023-04-25T09:03:08;15.62;73.81
71039;SHT30;58692;43.212;27.908;2023-04-25T09:05:34;15.56;73.22
71039;SHT30;58692;43.212;27.908;2023-04-25T09:08:01;15.59;72.65
71039;SHT30;58692;43.212;27.908;2023-04-25T09:10:27;15.54;73.07
71039;SHT30;58692;43.212;27.908;2023-04-25T09:13:09;15.57;73.09
71039;SHT30;58692;43.212;27.908;2023-04-25T09:15:57;15.54;72.94
71039;SHT30;58692;43.212;27.908;2023-04-25T09:18:31;15.63;72.93
71039;SHT30;58692;43.212;27.908;2023-04-25T09:21:09;15.87;72.25
71039;SHT30;58692;43.212;27.908;2023-04-25T09:27:02;15.77;72.24
71039;SHT30;58692;43.212;27.908;2023-04-25T09:36:37;16.15;70.52
71039;SHT30;58692;43.212;27.908;2023-04-25T09:39:46;16.40;70.19
71039;SHT30;58692;43.212;27.908;2023-04-25T09:42:48;16.32;70.36
71039;SHT30;58692;43.212;27.908;2023-04-25T09:45:17;16.62;69.52
71039;SHT30;58692;43.212;27.908;2023-04-25T09:47:42;16.75;69.14
71039;SHT30;58692;43.212;27.908;2023-04-25T09:50:15;16.80;68.80
71039;SHT30;58692;43.212;27.908;2023-04-25T09:52:44;16.65;69.56
71039;SHT30;58692;43.212;27.908;2023-04-25T09:55:10;17.13;68.42
71039;SHT30;58692;43.212;27.908;2023-04-25T09:57:35;17.10;67.98
71039;SHT30;58692;43.212;27.908;2023-04-25T10:00:06;17.20;68.05
71039;SHT30;58692;43.212;27.908;2023-04-25T10:02:54;17.53;67.45
71039;SHT30;58692;43.212;27.908;2023-04-25T10:05:20;18.00;66.06
71039;SHT30;58692;43.212;27.908;2023-04-25T10:07:47;18.29;64.80
71039;SHT30;58692;43.212;27.908;2023-04-25T10:10:13;18.43;64.34
71039;SHT30;58692;43.212;27.908;2023-04-25T10:12:44;18.80;63.63
71039;SHT30;58692;43.212;27.908;2023-04-25T10:15:11;19.34;62.66
71039;SHT30;58692;43.212;27.908;2023-04-25T10:17:38;19.98;60.76
71039;SHT30;58692;43.212;27.908;2023-04-25T10:20:06;21.21;58.34
71039;SHT30;58692;43.212;27.908;2023-04-25T10:22:38;21.83;55.53
71039;SHT30;58692;43.212;27.908;2023-04-25T10:25:05;22.12;55.27
71039;SHT30;58692;43.212;27.908;2023-04-25T10:27:32;22.77;53.59
71039;SHT30;58692;43.212;27.908;2023-04-25T10:30:14;22.74;53.94
71039;SHT30;58692;43.212;27.908;2023-04-25T10:32:42;22.20;54.94
71039;SHT30;58692;43.212;27.908;2023-04-25T10:38:00;21.72;56.46
71039;SHT30;58692;43.212;27.908;2023-04-25T10:40:33;21.17;57.86
71039;SHT30;58692;43.212;27.908;2023-04-25T10:46:00;21.78;56.29
71039;SHT30;58692;43.212;27.908;2023-04-25T10:48:26;21.35;57.45
71039;SHT30;58692;43.212;27.908;2023-04-25T10:51:08;20.97;59.04
71039;SHT30;58692;43.212;27.908;2023-04-25T10:53:34;20.51;59.86
71039;SHT30;58692;43.212;27.908;2023-04-25T10:56:00;20.19;60.58
71039;SHT30;58692;43.212;27.908;2023-04-25T10:58:34;20.23;61.03
71039;SHT30;58692;43.212;27.908;2023-04-25T11:01:01;20.41;60.82
71039;SHT30;58692;43.212;27.908;2023-04-25T11:03:29;20.70;59.81
71039;SHT30;58692;43.212;27.908;2023-04-25T11:05:55;20.81;59.74
71039;SHT30;58692;43.212;27.908;2023-04-25T11:08:47;19.79;62.10
71039;SHT30;58692;43.212;27.908;2023-04-25T11:11:13;19.26;63.36
71039;SHT30;58692;43.212;27.908;2023-04-25T11:13:38;18.93;64.69
71039;SHT30;58692;43.212;27.908;2023-04-25T11:16:07;18.89;65.42
71039;SHT30;58692;43.212;27.908;2023-04-25T11:18:32;20.00;62.07
71039;SHT30;58692;43.212;27.908;2023-04-25T11:20:59;19.81;62.54
71039;SHT30;58692;43.212;27.908;2023-04-25T11:23:25;20.04;62.51
71039;SHT30;58692;43.212;27.908;2023-04-25T11:25:52;20.02;61.77
71039;SHT30;58692;43.212;27.908;2023-04-25T11:28:21;20.40;60.07
71039;SHT30;58692;43.212;27.908;2023-04-25T11:30:49;20.70;59.76
71039;SHT30;58692;43.212;27.908;2023-04-25T11:33:16;20.53;59.96
71039;SHT30;58692;43.212;27.908;2023-04-25T11:35:42;20.57;59.80
71039;SHT30;58692;43.212;27.908;2023-04-25T11:38:08;20.77;58.51
71039;SHT30;58692;43.212;27.908;2023-04-25T11:40:35;21.15;56.63
71039;SHT30;58692;43.212;27.908;2023-04-25T11:43:01;21.34;55.94
71039;SHT30;58692;43.212;27.908;2023-04-25T11:45:27;21.10;55.75
71039;SHT30;58692;43.212;27.908;2023-04-25T11:47:54;21.30;55.57
71039;SHT30;58692;43.212;27.908;2023-04-25T11:50:19;21.20;55.44
71039;SHT30;58692;43.212;27.908;2023-04-25T11:52:47;21.10;54.91
71039;SHT30;58692;43.212;27.908;2023-04-25T11:57:42;20.49;57.02
71039;SHT30;58692;43.212;27.908;2023-04-25T12:02:42;21.18;55.05
71039;SHT30;58692;43.212;27.908;2023-04-25T12:05:10;20.90;54.34
71039;SHT30;58692;43.212;27.908;2023-04-25T12:07:36;20.80;53.47
71039;SHT30;58692;43.212;27.908;2023-04-25T12:10:08;20.60;53.74
71039;SHT30;58692;43.212;27.908;2023-04-25T12:12:35;20.39;54.05
71039;SHT30;58692;43.212;27.908;2023-04-25T12:17:37;20.16;55.04
71039;SHT30;58692;43.212;27.908;2023-04-25T12:20:08;20.30;54.45
71039;SHT30;58692;43.212;27.908;2023-04-25T12:22:34;20.26;55.16
71039;SHT30;58692;43.212;27.908;2023-04-25T12:25:02;19.64;56.64
71039;SHT30;58692;43.212;27.908;2023-04-25T12:27:30;19.32;57.64
71039;SHT30;58692;43.212;27.908;2023-04-25T12:29:57;19.02;58.55
71039;SHT30;58692;43.212;27.908;2023-04-25T12:32:23;18.46;60.21
71039;SHT30;58692;43.212;27.908;2023-04-25T12:34:49;18.36;60.63
71039;SHT30;58692;43.212;27.908;2023-04-25T12:37:15;18.36;61.06
71039;SHT30;58692;43.212;27.908;2023-04-25T12:39:41;17.87;62.59
71039;SHT30;58692;43.212;27.908;2023-04-25T12:42:06;17.41;63.59
71039;SHT30;58692;43.212;27.908;2023-04-25T12:44:37;17.33;64.56
71039;SHT30;58692;43.212;27.908;2023-04-25T12:47:05;17.29;65.15
71039;SHT30;58692;43.212;27.908;2023-04-25T12:49:32;17.49;64.70
71039;SHT30;58692;43.212;27.908;2023-04-25T12:52:00;17.37;65.07
71039;SHT30;58692;43.212;27.908;2023-04-25T12:54:26;17.33;65.96
71039;SHT30;58692;43.212;27.908;2023-04-25T12:56:52;17.53;65.76
71039;SHT30;58692;43.212;27.908;2023-04-25T12:59:17;17.70;65.86
71039;SHT30;58692;43.212;27.908;2023-04-25T13:01:43;17.98;65.31
71039;SHT30;58692;43.212;27.908;2023-04-25T13:04:10;18.04;65.49
71039;SHT30;58692;43.212;27.908;2023-04-25T13:06:36;18.31;65.04
71039;SHT30;58692;43.212;27.908;2023-04-25T13:09:02;18.31;64.93
71039;SHT30;58692;43.212;27.908;2023-04-25T13:11:31;18.11;65.95
71039;SHT30;58692;43.212;27.908;2023-04-25T13:13:57;17.94;66.66
71039;SHT30;58692;43.212;27.908;2023-04-25T13:16:25;17.95;66.91
71039;SHT30;58692;43.212;27.908;2023-04-25T13:18:54;17.80;67.23
71039;SHT30;58692;43.212;27.908;2023-04-25T13:21:21;17.61;67.97
71039;SHT30;58692;43.212;27.908;2023-04-25T13:23:46;17.43;68.74
71039;SHT30;58692;43.212;27.908;2023-04-25T13:26:12;17.27;69.31
71039;SHT30;58692;43.212;27.908;2023-04-25T13:28:38;17.17;69.44
71039;SHT30;58692;43.212;27.908;2023-04-25T13:31:03;17.03;70.22
71039;SHT30;58692;43.212;27.908;2023-04-25T13:33:29;17.05;70.19
71039;SHT30;58692;43.212;27.908;2023-04-25T13:35:54;16.96;70.62
71039;SHT30;58692;43.212;27.908;2023-04-25T13:38:23;16.92;70.99
71039;SHT30;58692;43.212;27.908;2023-04-25T13:40:49;17.06;71.19
71039;SHT30;58692;43.212;27.908;2023-04-25T13:43:18;16.82;71.49
71039;SHT30;58692;43.212;27.908;2023-04-25T13:45:44;16.80;71.78
71039;SHT30;58692;43.212;27.908;2023-04-25T13:48:10;16.83;71.87
71039;SHT30;58692;43.212;27.908;2023-04-25T13:50:35;16.61;72.77
71039;SHT30;58692;43.212;27.908;2023-04-25T13:53:01;16.45;73.61
71039;SHT30;58692;43.212;27.908;2023-04-25T13:55:26;16.27;74.75
71039;SHT30;58692;43.212;27.908;2023-04-25T13:57:52;16.17;75.21
71039;SHT30;58692;43.212;27.908;2023-04-25T14:00:18;16.31;75.18
71039;SHT30;58692;43.212;27.908;2023-04-25T14:02:43;16.29;75.40
71039;SHT30;58692;43.212;27.908;2023-04-25T14:05:09;16.21;75.79
71039;SHT30;58692;43.212;27.908;2023-04-25T14:07:35;16.17;76.24
71039;SHT30;58692;43.212;27.908;2023-04-25T14:13:28;16.04;76.98
71039;SHT30;58692;43.212;27.908;2023-04-25T14:15:53;15.87;77.74
71039;SHT30;58692;43.212;27.908;2023-04-25T14:18:22;16.01;77.47
71039;SHT30;58692;43.212;27.908;2023-04-25T14:20:48;16.05;77.46
71039;SHT30;58692;43.212;27.908;2023-04-25T14:23:14;16.11;77.29
71039;SHT30;58692;43.212;27.908;2023-04-25T14:25:39;16.15;77.28
71039;SHT30;58692;43.212;27.908;2023-04-25T14:28:07;16.17;77.48
71039;SHT30;58692;43.212;27.908;2023-04-25T14:30:33;16.28;77.30
71039;SHT30;58692;43.212;27.908;2023-04-25T14:32:58;16.35;76.90
71039;SHT30;58692;43.212;27.908;2023-04-25T14:35:24;16.58;76.23
71039;SHT30;58692;43.212;27.908;2023-04-25T14:37:50;16.62;76.15
71039;SHT30;58692;43.212;27.908;2023-04-25T14:40:17;16.42;76.17
71039;SHT30;58692;43.212;27.908;2023-04-25T14:42:43;16.49;76.14
71039;SHT30;58692;43.212;27.908;2023-04-25T14:45:09;16.66;75.33
71039;SHT30;58692;43.212;27.908;2023-04-25T14:47:36;16.69;75.20
71039;SHT30;58692;43.212;27.908;2023-04-25T14:50:22;16.88;74.80
71039;SHT30;58692;43.212;27.908;2023-04-25T14:52:55;16.98;74.71
71039;SHT30;58692;43.212;27.908;2023-04-25T14:55:45;17.20;74.06
71039;SHT30;58692;43.212;27.908;2023-04-25T14:58:33;17.20;74.04
71039;SHT30;58692;43.212;27.908;2023-04-25T15:00:59;16.99;74.86
71039;SHT30;58692;43.212;27.908;2023-04-25T15:03:26;16.96;75.58
71039;SHT30;58692;43.212;27.908;2023-04-25T15:05:53;16.99;75.41
71039;SHT30;58692;43.212;27.908;2023-04-25T15:08:20;16.90;75.59
71039;SHT30;58692;43.212;27.908;2023-04-25T15:10:46;16.85;77.36
71039;SHT30;58692;43.212;27.908;2023-04-25T15:13:11;16.88;78.66
71039;SHT30;58692;43.212;27.908;2023-04-25T15:15:37;16.86;79.10
71039;SHT30;58692;43.212;27.908;2023-04-25T15:18:05;16.85;79.09
71039;SHT30;58692;43.212;27.908;2023-04-25T15:20:30;16.79;79.20
71039;SHT30;58692;43.212;27.908;2023-04-25T15:22:56;16.82;78.38
71039;SHT30;58692;43.212;27.908;2023-04-25T15:25:22;16.82;77.70
71039;SHT30;58692;43.212;27.908;2023-04-25T15:27:53;16.62;78.47
71039;SHT30;58692;43.212;27.908;2023-04-25T15:30:20;16.58;79.49
71039;SHT30;58692;43.212;27.908;2023-04-25T15:32:47;16.54;80.58
71039;SHT30;58692;43.212;27.908;2023-04-25T15:35:14;16.51;83.65
71039;SHT30;58692;43.212;27.908;2023-04-25T15:37:40;16.28;84.36
71039;SHT30;58692;43.212;27.908;2023-04-25T15:40:07;16.40;85.11
71039;SHT30;58692;43.212;27.908;2023-04-25T15:42:36;16.42;86.51